Date,TemperatureHighF,TemperatureAvgF,TemperatureLowF,DewpointHighF,DewpointAvgF,DewpointLowF,HumidityHigh,HumidityAvg,HumidityLow,PressureMaxIn,PressureMinIn,WindSpeedMaxMPH,WindSpeedAvgMPH,GustSpeedMaxMPH,PrecipitationSumIn
2013-1-1,-200.0,0.0,200.0,-99.9,-99.9,-99.9,0,0,100,30.25,30.18,8,5,0,0.00
2013-1-2,-200.0,0.0,200.0,-99.9,-99.9,-99.9,0,0,100,30.08,29.97,13,8,0,0.00
2013-1-3,-200.0,0.0,200.0,-99.9,-99.9,-99.9,0,0,100,30.30,30.10,15,11,0,0.00
2013-1-4,-200.0,0.0,200.0,-99.9,-99.9,-99.9,0,0,100,30.13,30.12,13,11,0,0.00
2013-1-5,-200.0,0.0,200.0,-99.9,-99.9,-99.9,0,0,100,30.05,29.87,16,10,0,0.00
2013-1-6,-200.0,0.0,200.0,-99.9,-99.9,-99.9,0,0,100,30.23,30.07,18,12,0,0.00
2013-1-7,-200.0,0.0,200.0,-99.9,-99.9,-99.9,0,0,100,30.10,29.94,16,13,0,0.00
2013-1-8,-200.0,0.0,200.0,-99.9,-99.9,-99.9,0,0,100,29.95,29.81,10,6,0,0.00
2013-1-9,-200.0,0.0,200.0,-99.9,-99.9,-99.9,0,0,100,30.37,30.07,16,10,0,0.00
2013-1-13,-200.0,0.0,200.0,-99.9,-99.9,-99.9,0,0,100,30.18,30.18,8,8,0,0.00
2013-1-23,-200.0,0.0,200.0,-99.9,-99.9,-99.9,0,0,100,30.43,30.38,17,16,0,0.00
2013-1-24,-200.0,0.0,200.0,-99.9,-99.9,-99.9,0,0,100,30.53,30.16,13,10,0,0.00
2013-1-25,-200.0,0.0,200.0,-99.9,-99.9,-99.9,0,0,100,30.23,30.01,18,12,0,0.00
2013-1-26,-200.0,0.0,200.0,-99.9,-99.9,-99.9,0,0,100,30.29,30.09,14,9,0,0.00
2013-1-27,-200.0,0.0,200.0,-99.9,-99.9,-99.9,0,0,100,30.04,29.71,13,5,0,0.00
2013-1-28,-200.0,0.0,200.0,-99.9,-99.9,-99.9,0,0,100,29.86,29.55,11,7,0,0.00
2013-1-29,-200.0,0.0,200.0,-99.9,-99.9,-99.9,0,0,100,29.62,29.47,19,11,0,0.00
2013-1-30,-200.0,0.0,200.0,-99.9,-99.9,-99.9,0,0,100,29.77,29.50,26,22,0,0.00
2013-1-31,-200.0,0.0,200.0,-99.9,-99.9,-99.9,0,0,100,30.28,29.91,25,20,0,0.00
2013-2-1,-200.0,0.0,200.0,-99.9,-99.9,-99.9,0,0,100,30.31,29.96,14,10,0,0.00
2013-2-2,-200.0,0.0,200.0,-99.9,-99.9,-99.9,0,0,100,30.12,29.92,16,11,0,0.00
2013-2-3,-200.0,0.0,200.0,-99.9,-99.9,-99.9,0,0,100,30.10,29.74,22,11,0,0.00
2013-2-4,-200.0,0.0,200.0,-99.9,-99.9,-99.9,0,0,100,29.96,29.71,16,7,0,0.00
2013-2-5,-200.0,0.0,200.0,-99.9,-99.9,-99.9,0,0,100,30.04,29.72,17,9,0,0.00
2013-2-6,-200.0,0.0,200.0,-99.9,-99.9,-99.9,0,0,100,30.05,29.86,13,8,0,0.00
2013-2-7,-200.0,0.0,200.0,-99.9,-99.9,-99.9,0,0,100,30.12,29.84,18,12,0,0.00
2013-2-8,-200.0,0.0,200.0,-99.9,-99.9,-99.9,0,0,100,30.29,30.18,13,8,0,0.00
2013-2-9,-200.0,0.0,200.0,-99.9,-99.9,-99.9,0,0,100,30.18,29.81,15,13,0,0.00
2013-2-10,-200.0,0.0,200.0,-99.9,-99.9,-99.9,0,0,100,29.74,29.23,25,17,0,0.00
2013-2-11,-200.0,0.0,200.0,-99.9,-99.9,-99.9,0,0,100,30.05,29.59,27,21,0,0.00
2013-2-12,-200.0,0.0,200.0,-99.9,-99.9,-99.9,0,0,100,30.07,29.82,14,8,0,0.00
2013-2-13,-200.0,0.0,200.0,-99.9,-99.9,-99.9,0,0,100,29.80,29.62,11,8,0,0.00
2013-2-14,-200.0,0.0,200.0,-99.9,-99.9,-99.9,0,0,100,30.11,29.66,19,15,0,0.00
2013-2-15,-200.0,0.0,200.0,-99.9,-99.9,-99.9,0,0,100,30.26,30.16,13,10,0,0.00
2013-2-16,-200.0,0.0,200.0,-99.9,-99.9,-99.9,0,0,100,30.21,30.03,7,5,0,0.00
2013-2-17,-200.0,0.0,200.0,-99.9,-99.9,-99.9,0,0,100,30.02,29.65,18,12,0,0.00
2013-2-18,-200.0,0.0,200.0,-99.9,-99.9,-99.9,0,0,100,29.84,29.53,26,15,0,0.00
2013-2-19,-200.0,0.0,200.0,-99.9,-99.9,-99.9,0,0,100,30.29,29.92,23,18,0,0.00
2013-2-20,-200.0,0.0,200.0,-99.9,-99.9,-99.9,0,0,100,30.36,30.22,11,7,0,0.00
2013-2-21,-200.0,0.0,200.0,-99.9,-99.9,-99.9,0,0,100,30.25,29.83,20,14,0,0.00
2013-2-22,-200.0,0.0,200.0,-99.9,-99.9,-99.9,0,0,100,29.92,29.73,17,10,0,0.00
2013-2-23,-200.0,0.0,200.0,-99.9,-99.9,-99.9,0,0,100,29.91,29.84,8,6,0,0.00
2013-2-24,-200.0,0.0,200.0,-99.9,-99.9,-99.9,0,0,100,30.01,29.90,8,4,0,0.00
2013-2-25,-200.0,0.0,200.0,-99.9,-99.9,-99.9,0,0,100,30.03,29.90,8,5,0,0.00
2013-2-26,-200.0,0.0,200.0,-99.9,-99.9,-99.9,0,0,100,29.82,29.69,18,14,0,0.00
2013-2-27,-200.0,0.0,200.0,-99.9,-99.9,-99.9,0,0,100,29.93,29.74,20,17,0,0.00
2013-2-28,-200.0,0.0,200.0,-99.9,-99.9,-99.9,0,0,100,30.11,29.96,16,14,0,0.00
2013-3-1,-200.0,0.0,200.0,-99.9,-99.9,-99.9,0,0,100,30.26,30.10,11,10,0,0.00
2013-3-2,-200.0,0.0,200.0,-99.9,-99.9,-99.9,0,0,100,30.26,30.13,9,6,0,0.00
2013-3-3,-200.0,0.0,200.0,-99.9,-99.9,-99.9,0,0,100,30.08,29.87,17,12,0,0.00
2013-3-4,-200.0,0.0,200.0,-99.9,-99.9,-99.9,0,0,100,29.91,29.75,19,13,0,0.00
2013-3-5,-200.0,0.0,200.0,-99.9,-99.9,-99.9,0,0,100,30.19,29.89,22,16,0,0.00
2013-3-6,-200.0,0.0,200.0,-99.9,-99.9,-99.9,0,0,100,30.35,30.24,17,9,0,0.00
2013-3-7,-200.0,0.0,200.0,-99.9,-99.9,-99.9,0,0,100,30.30,30.19,14,8,0,0.00
2013-3-8,-200.0,0.0,200.0,-99.9,-99.9,-99.9,0,0,100,30.22,30.01,15,10,0,0.00
2013-3-9,-200.0,0.0,200.0,-99.9,-99.9,-99.9,0,0,100,29.96,29.63,15,10,0,0.00
2013-3-10,-200.0,0.0,200.0,-99.9,-99.9,-99.9,0,0,100,29.72,29.62,21,17,0,0.00
2013-3-11,-200.0,0.0,200.0,-99.9,-99.9,-99.9,0,0,100,29.88,29.68,19,15,0,0.00
2013-3-12,-200.0,0.0,200.0,-99.9,-99.9,-99.9,0,0,100,30.17,29.88,24,16,0,0.00
2013-3-13,-200.0,0.0,200.0,-99.9,-99.9,-99.9,0,0,100,30.38,30.19,15,8,0,0.00
2013-3-14,-200.0,0.0,200.0,-99.9,-99.9,-99.9,0,0,100,30.24,30.02,10,6,0,0.00
2013-3-15,-200.0,0.0,200.0,-99.9,-99.9,-99.9,0,0,100,30.01,29.69,8,5,0,0.00
2013-3-16,-200.0,0.0,200.0,-99.9,-99.9,-99.9,0,0,100,30.13,29.75,19,14,0,0.00
2013-3-17,-200.0,0.0,200.0,-99.9,-99.9,-99.9,0,0,100,30.14,29.81,16,12,0,0.00
2013-3-18,-200.0,0.0,200.0,-99.9,-99.9,-99.9,0,0,100,29.91,29.66,26,18,0,0.00
2013-3-19,-200.0,0.0,200.0,-99.9,-99.9,-99.9,0,0,100,30.19,29.92,20,13,0,0.00
2013-3-20,-200.0,0.0,200.0,-99.9,-99.9,-99.9,0,0,100,30.26,30.09,21,16,0,0.00
2013-3-21,-200.0,0.0,200.0,-99.9,-99.9,-99.9,0,0,100,30.08,29.93,10,5,0,0.00
2013-3-22,-200.0,0.0,200.0,-99.9,-99.9,-99.9,0,0,100,30.03,29.95,6,4,0,0.00
2013-3-23,-200.0,0.0,200.0,-99.9,-99.9,-99.9,0,0,100,30.07,29.97,11,7,0,0.00
2013-3-24,-200.0,0.0,200.0,-99.9,-99.9,-99.9,0,0,100,29.97,29.86,17,14,0,0.00
2013-3-25,-200.0,0.0,200.0,-99.9,-99.9,-99.9,0,0,100,30.19,29.92,18,15,0,0.00
2013-3-26,-200.0,0.0,200.0,-99.9,-99.9,-99.9,0,0,100,30.27,30.20,12,7,0,0.00
2013-3-27,-200.0,0.0,200.0,-99.9,-99.9,-99.9,0,0,100,30.28,30.19,7,4,0,0.00
2013-3-28,-200.0,0.0,200.0,-99.9,-99.9,-99.9,0,0,100,30.25,30.16,9,6,0,0.00
2013-3-29,-200.0,0.0,200.0,-99.9,-99.9,-99.9,0,0,100,30.21,30.07,11,6,0,0.00
2013-3-30,-200.0,0.0,200.0,-99.9,-99.9,-99.9,0,0,100,30.05,29.83,11,6,0,0.00
2013-3-31,-200.0,0.0,200.0,-99.9,-99.9,-99.9,0,0,100,30.04,29.84,21,12,0,0.00
2013-4-1,-200.0,0.0,200.0,-99.9,-99.9,-99.9,0,0,100,30.23,30.05,16,11,0,0.00
2013-4-2,-200.0,0.0,200.0,-99.9,-99.9,-99.9,0,0,100,30.28,30.22,11,6,0,0.00
2013-4-3,-200.0,0.0,200.0,-99.9,-99.9,-99.9,0,0,100,30.34,30.18,12,6,0,0.00
2013-4-4,-200.0,0.0,200.0,-99.9,-99.9,-99.9,0,0,100,30.18,29.99,13,9,0,0.00
2013-4-5,-200.0,0.0,200.0,-99.9,-99.9,-99.9,0,0,100,30.14,29.79,16,10,0,0.00
2013-4-6,-200.0,0.0,200.0,-99.9,-99.9,-99.9,0,0,100,29.77,29.51,19,13,0,0.00
2013-4-7,-200.0,0.0,200.0,-99.9,-99.9,-99.9,0,0,100,29.89,29.64,15,8,0,0.00
2013-4-8,-200.0,0.0,200.0,-99.9,-99.9,-99.9,0,0,100,29.78,29.58,12,6,0,0.00
2013-4-9,-200.0,0.0,200.0,-99.9,-99.9,-99.9,0,0,100,29.86,29.69,17,14,0,0.00
2013-4-10,-200.0,0.0,200.0,-99.9,-99.9,-99.9,0,0,100,29.96,29.72,20,11,0,0.00
2013-4-11,-200.0,0.0,200.0,-99.9,-99.9,-99.9,0,0,100,29.69,29.55,13,9,0,0.00
2013-4-12,-200.0,0.0,200.0,-99.9,-99.9,-99.9,0,0,100,29.89,29.56,18,15,0,0.00
2013-4-13,-200.0,0.0,200.0,-99.9,-99.9,-99.9,0,0,100,29.94,29.80,15,9,0,0.00
2013-4-14,-200.0,0.0,200.0,-99.9,-99.9,-99.9,0,0,100,29.80,29.37,19,13,0,0.00
2013-4-15,-200.0,0.0,200.0,-99.9,-99.9,-99.9,0,0,100,30.01,29.61,18,10,0,0.00
2013-4-16,-200.0,0.0,200.0,-99.9,-99.9,-99.9,0,0,100,30.19,30.02,12,8,0,0.00
2013-4-17,-200.0,0.0,200.0,-99.9,-99.9,-99.9,0,0,100,30.15,29.62,18,11,0,0.00
2013-4-18,-200.0,0.0,200.0,-99.9,-99.9,-99.9,0,0,100,29.67,29.52,21,17,0,0.00
2013-4-19,-200.0,0.0,200.0,-99.9,-99.9,-99.9,0,0,100,30.01,29.63,25,20,0,0.00
2013-4-20,-200.0,0.0,200.0,-99.9,-99.9,-99.9,0,0,100,30.22,30.02,10,6,0,0.00
2013-4-21,-200.0,0.0,200.0,-99.9,-99.9,-99.9,0,0,100,30.18,30.00,21,14,0,0.00
2013-4-22,-200.0,0.0,200.0,-99.9,-99.9,-99.9,0,0,100,30.11,29.87,18,8,0,0.00
2013-4-23,-200.0,0.0,200.0,-99.9,-99.9,-99.9,0,0,100,30.10,30.02,19,17,0,0.00
2013-4-24,-200.0,0.0,200.0,-99.9,-99.9,-99.9,0,0,100,30.07,29.95,18,14,0,0.00
2013-4-25,-200.0,0.0,200.0,-99.9,-99.9,-99.9,0,0,100,30.22,30.07,15,8,0,0.00
2013-4-26,-200.0,0.0,200.0,-99.9,-99.9,-99.9,0,0,100,30.14,30.03,23,13,0,0.00
2013-4-27,-200.0,0.0,200.0,-99.9,-99.9,-99.9,0,0,100,30.16,29.94,10,7,0,0.00
2013-4-28,-200.0,0.0,200.0,-99.9,-99.9,-99.9,0,0,100,29.94,29.71,14,9,0,0.00
2013-4-29,-200.0,0.0,200.0,-99.9,-99.9,-99.9,0,0,100,29.74,29.58,9,6,0,0.00
2013-4-30,-200.0,0.0,200.0,-99.9,-99.9,-99.9,0,0,100,29.82,29.51,25,16,0,0.00
2013-5-1,-200.0,0.0,200.0,-99.9,-99.9,-99.9,0,0,100,30.29,29.86,24,20,0,0.00
2013-5-2,-200.0,0.0,200.0,-99.9,-99.9,-99.9,0,0,100,30.39,30.25,23,17,0,0.00
2013-5-3,-200.0,0.0,200.0,-99.9,-99.9,-99.9,0,0,100,30.29,29.95,20,17,0,0.00
2013-5-4,-200.0,0.0,200.0,-99.9,-99.9,-99.9,0,0,100,30.03,29.87,17,13,0,0.00
2013-5-5,-200.0,0.0,200.0,-99.9,-99.9,-99.9,0,0,100,30.07,30.01,14,11,0,0.00
2013-5-6,-200.0,0.0,200.0,-99.9,-99.9,-99.9,0,0,100,30.06,29.97,11,6,0,0.00
2013-5-7,-200.0,0.0,200.0,-99.9,-99.9,-99.9,0,0,100,30.04,29.93,6,4,0,0.00
2013-5-8,-200.0,0.0,200.0,-99.9,-99.9,-99.9,0,0,100,29.96,29.91,14,6,0,0.00
2013-5-9,-200.0,0.0,200.0,-99.9,-99.9,-99.9,0,0,100,29.91,29.81,15,9,0,0.00
2013-5-10,-200.0,0.0,200.0,-99.9,-99.9,-99.9,0,0,100,30.00,29.91,16,11,0,0.00
2013-5-11,-200.0,0.0,200.0,-99.9,-99.9,-99.9,0,0,100,30.16,29.93,25,17,0,0.00
2013-5-12,-200.0,0.0,200.0,-99.9,-99.9,-99.9,0,0,100,30.21,30.07,12,7,0,0.00
2013-5-13,-200.0,0.0,200.0,-99.9,-99.9,-99.9,0,0,100,30.08,29.80,20,10,0,0.00
2013-5-14,-200.0,0.0,200.0,-99.9,-99.9,-99.9,0,0,100,29.79,29.55,25,14,0,0.00
2013-5-15,-200.0,0.0,200.0,-99.9,-99.9,-99.9,0,0,100,29.90,29.72,17,9,0,0.00
2013-5-16,-200.0,0.0,200.0,-99.9,-99.9,-99.9,0,0,100,29.87,29.77,14,6,0,0.00
2013-5-17,-200.0,0.0,200.0,-99.9,-99.9,-99.9,0,0,100,29.90,29.81,12,7,0,0.00
2013-5-18,-200.0,0.0,200.0,-99.9,-99.9,-99.9,0,0,100,29.92,29.75,15,9,0,0.00
2013-5-19,-200.0,0.0,200.0,-99.9,-99.9,-99.9,0,0,100,29.74,29.54,23,14,0,0.00
2013-5-20,-200.0,0.0,200.0,-99.9,-99.9,-99.9,0,0,100,29.63,29.53,21,13,0,0.00
2013-5-21,-200.0,0.0,200.0,-99.9,-99.9,-99.9,0,0,100,29.64,29.53,16,11,0,0.00
2013-5-22,-200.0,0.0,200.0,-99.9,-99.9,-99.9,0,0,100,29.84,29.62,16,11,0,0.00
2013-5-23,-200.0,0.0,200.0,-99.9,-99.9,-99.9,0,0,100,30.21,29.86,14,11,0,0.00
2013-5-24,-200.0,0.0,200.0,-99.9,-99.9,-99.9,0,0,100,30.31,30.12,16,10,0,0.00
2013-5-25,-200.0,0.0,200.0,-99.9,-99.9,-99.9,0,0,100,30.24,30.09,19,15,0,0.00
2013-5-26,-200.0,0.0,200.0,-99.9,-99.9,-99.9,0,0,100,30.10,29.91,21,14,0,0.00
2013-5-27,-200.0,0.0,200.0,-99.9,-99.9,-99.9,0,0,100,29.95,29.64,26,9,0,0.00
2013-5-28,-200.0,0.0,200.0,-99.9,-99.9,-99.9,0,0,100,29.74,29.61,10,6,0,0.00
2013-5-29,-200.0,0.0,200.0,-99.9,-99.9,-99.9,0,0,100,29.76,29.65,16,8,0,0.00
2013-5-30,-200.0,0.0,200.0,-99.9,-99.9,-99.9,0,0,100,29.64,29.53,17,13,0,0.00
2013-5-31,-200.0,0.0,200.0,-99.9,-99.9,-99.9,0,0,100,29.65,29.59,20,13,0,0.00
2013-6-1,-200.0,0.0,200.0,-99.9,-99.9,-99.9,0,0,100,29.87,29.59,15,10,0,0.00
2013-6-2,-200.0,0.0,200.0,-99.9,-99.9,-99.9,0,0,100,30.03,29.89,15,9,0,0.00
2013-6-3,-200.0,0.0,200.0,-99.9,-99.9,-99.9,0,0,100,30.04,29.89,13,8,0,0.00
2013-6-4,-200.0,0.0,200.0,-99.9,-99.9,-99.9,0,0,100,30.01,29.94,17,11,0,0.00
2013-6-5,-200.0,0.0,200.0,-99.9,-99.9,-99.9,0,0,100,29.97,29.89,10,6,0,0.00
2013-6-6,-200.0,0.0,200.0,-99.9,-99.9,-99.9,0,0,100,29.95,29.88,13,8,0,0.00
2013-6-7,-200.0,0.0,200.0,-99.9,-99.9,-99.9,0,0,100,29.98,29.89,8,5,0,0.00
2013-6-8,-200.0,0.0,200.0,-99.9,-99.9,-99.9,0,0,100,29.89,29.74,13,8,0,0.00
2013-6-9,-200.0,0.0,200.0,-99.9,-99.9,-99.9,0,0,100,29.74,29.67,15,10,0,0.00
2013-6-10,-200.0,0.0,200.0,-99.9,-99.9,-99.9,0,0,100,29.86,29.74,6,3,0,0.00
2013-6-11,-200.0,0.0,200.0,-99.9,-99.9,-99.9,0,0,100,29.86,29.71,12,7,0,0.00
2013-6-12,-200.0,0.0,200.0,-99.9,-99.9,-99.9,0,0,100,29.84,29.67,22,12,0,0.00
2013-6-13,-200.0,0.0,200.0,-99.9,-99.9,-99.9,0,0,100,30.02,29.86,19,8,0,0.00
2013-6-14,-200.0,0.0,200.0,-99.9,-99.9,-99.9,0,0,100,30.01,29.81,19,10,0,0.00
2013-6-15,-200.0,0.0,200.0,-99.9,-99.9,-99.9,0,0,100,29.93,29.82,15,7,0,0.00
2013-6-16,-200.0,0.0,200.0,-99.9,-99.9,-99.9,0,0,100,29.93,29.89,7,5,0,0.00
2013-6-17,-200.0,0.0,200.0,-99.9,-99.9,-99.9,0,0,100,29.95,29.87,12,6,0,0.00
2013-6-18,-200.0,0.0,200.0,-99.9,-99.9,-99.9,0,0,100,29.98,29.93,8,5,0,0.00
2013-6-19,-200.0,0.0,200.0,-99.9,-99.9,-99.9,0,0,100,30.01,29.93,14,9,0,0.00
2013-6-20,-200.0,0.0,200.0,-99.9,-99.9,-99.9,0,0,100,29.98,29.90,18,11,0,0.00
2013-6-22,-200.0,0.0,200.0,-99.9,-99.9,-99.9,0,0,100,29.98,29.81,20,11,0,0.00
2013-6-23,-200.0,0.0,200.0,-99.9,-99.9,-99.9,0,0,100,29.90,29.79,15,10,0,0.00
2013-6-24,-200.0,0.0,200.0,-99.9,-99.9,-99.9,0,0,100,29.89,29.78,12,8,0,0.00
2013-6-25,-200.0,0.0,200.0,-99.9,-99.9,-99.9,0,0,100,29.79,29.70,13,7,0,0.00
2013-6-26,-200.0,0.0,200.0,-99.9,-99.9,-99.9,0,0,100,29.82,29.66,15,7,0,0.00
2013-6-27,-200.0,0.0,200.0,-99.9,-99.9,-99.9,0,0,100,29.92,29.82,13,7,0,0.00
2013-6-28,-200.0,0.0,200.0,-99.9,-99.9,-99.9,0,0,100,29.86,29.76,22,14,0,0.00
2013-6-29,-200.0,0.0,200.0,-99.9,-99.9,-99.9,0,0,100,29.88,29.75,18,12,0,0.00
2013-6-30,-200.0,0.0,200.0,-99.9,-99.9,-99.9,0,0,100,30.05,29.91,12,8,0,0.00
2013-7-1,-200.0,0.0,200.0,-99.9,-99.9,-99.9,0,0,100,30.11,30.06,12,7,0,0.00
2013-7-2,-200.0,0.0,200.0,-99.9,-99.9,-99.9,0,0,100,30.10,29.99,10,5,0,0.00
2013-7-3,-200.0,0.0,200.0,-99.9,-99.9,-99.9,0,0,100,30.03,29.94,8,4,0,0.00
2013-7-4,-200.0,0.0,200.0,-99.9,-99.9,-99.9,0,0,100,30.00,29.91,12,7,0,0.00
2013-7-5,-200.0,0.0,200.0,-99.9,-99.9,-99.9,0,0,100,29.95,29.86,16,10,0,0.00
2013-7-6,-200.0,0.0,200.0,-99.9,-99.9,-99.9,0,0,100,29.92,29.82,14,9,0,0.00
2013-7-7,-200.0,0.0,200.0,-99.9,-99.9,-99.9,0,0,100,29.87,29.83,15,9,0,0.00
2013-7-8,-200.0,0.0,200.0,-99.9,-99.9,-99.9,0,0,100,29.93,29.87,8,5,0,0.00
2013-7-9,-200.0,0.0,200.0,-99.9,-99.9,-99.9,0,0,100,29.94,29.83,9,5,0,0.00
2013-7-10,-200.0,0.0,200.0,-99.9,-99.9,-99.9,0,0,100,30.03,29.89,13,6,0,0.00
2013-7-11,-200.0,0.0,200.0,-99.9,-99.9,-99.9,0,0,100,30.09,29.98,9,5,0,0.00
2013-7-12,-200.0,0.0,200.0,-99.9,-99.9,-99.9,0,0,100,30.04,29.95,14,9,0,0.00
2013-7-13,-200.0,0.0,200.0,-99.9,-99.9,-99.9,0,0,100,30.02,29.98,12,9,0,0.00
2013-7-14,-200.0,0.0,200.0,-99.9,-99.9,-99.9,0,0,100,30.13,30.03,11,6,0,0.00
2013-7-15,-200.0,0.0,200.0,-99.9,-99.9,-99.9,0,0,100,30.20,30.10,9,5,0,0.00
2013-7-16,-200.0,0.0,200.0,-99.9,-99.9,-99.9,0,0,100,30.22,30.16,7,4,0,0.00
2013-7-17,-200.0,0.0,200.0,-99.9,-99.9,-99.9,0,0,100,30.26,30.13,6,4,0,0.00
2013-7-18,-200.0,0.0,200.0,-99.9,-99.9,-99.9,0,0,100,30.15,29.90,13,8,0,0.00
2013-7-19,-200.0,0.0,200.0,-99.9,-99.9,-99.9,0,0,100,29.90,29.80,11,6,0,0.00
2013-7-20,-200.0,0.0,200.0,-99.9,-99.9,-99.9,0,0,100,29.94,29.83,4,2,0,0.00
2013-7-21,-200.0,0.0,200.0,-99.9,-99.9,-99.9,0,0,100,29.89,29.78,12,5,0,0.00
2013-7-22,-200.0,0.0,200.0,-99.9,-99.9,-99.9,0,0,100,29.82,29.67,14,7,0,0.00
2013-7-23,-200.0,0.0,200.0,-99.9,-99.9,-99.9,0,0,100,29.97,29.79,9,5,0,0.00
2013-7-24,-200.0,0.0,200.0,-99.9,-99.9,-99.9,0,0,100,30.04,29.96,6,3,0,0.00
2013-7-25,-200.0,0.0,200.0,-99.9,-99.9,-99.9,0,0,100,30.02,29.89,12,7,0,0.00
2013-7-26,-200.0,0.0,200.0,-99.9,-99.9,-99.9,0,0,100,30.02,29.91,14,8,0,0.00
2013-7-27,-200.0,0.0,200.0,-99.9,-99.9,-99.9,0,0,100,30.05,29.95,11,7,0,0.00
2013-7-28,-200.0,0.0,200.0,-99.9,-99.9,-99.9,0,0,100,30.03,29.96,10,6,0,0.00
2013-7-29,-200.0,0.0,200.0,-99.9,-99.9,-99.9,0,0,100,30.08,30.03,7,5,0,0.00
2013-7-30,-200.0,0.0,200.0,-99.9,-99.9,-99.9,0,0,100,30.05,30.01,6,4,0,0.00
2013-7-31,-200.0,0.0,200.0,-99.9,-99.9,-99.9,0,0,100,30.08,29.98,6,3,0,0.00
2013-8-1,-200.0,0.0,200.0,-99.9,-99.9,-99.9,0,0,100,30.03,29.88,7,3,0,0.00
2013-8-2,-200.0,0.0,200.0,-99.9,-99.9,-99.9,0,0,100,29.99,29.87,9,4,0,0.00
2013-8-3,-200.0,0.0,200.0,-99.9,-99.9,-99.9,0,0,100,30.15,30.01,5,4,0,0.00
2013-8-4,-200.0,0.0,200.0,-99.9,-99.9,-99.9,0,0,100,30.16,30.02,8,4,0,0.00
2013-8-5,-200.0,0.0,200.0,-99.9,-99.9,-99.9,0,0,100,30.01,29.81,8,5,0,0.00
2013-8-6,-200.0,0.0,200.0,-99.9,-99.9,-99.9,0,0,100,29.86,29.75,8,4,0,0.00
2013-8-7,-200.0,0.0,200.0,-99.9,-99.9,-99.9,0,0,100,29.98,29.78,11,6,0,0.00
2013-8-8,-200.0,0.0,200.0,-99.9,-99.9,-99.9,0,0,100,30.00,29.94,5,2,0,0.00
2013-8-9,-200.0,0.0,200.0,-99.9,-99.9,-99.9,0,0,100,30.08,29.97,9,4,0,0.00
2013-8-10,-200.0,0.0,200.0,-99.9,-99.9,-99.9,0,0,100,30.15,30.05,5,2,0,0.00
2013-8-11,-200.0,0.0,200.0,-99.9,-99.9,-99.9,0,0,100,30.08,29.94,12,6,0,0.00
2013-8-12,-200.0,0.0,200.0,-99.9,-99.9,-99.9,0,0,100,30.02,29.96,11,6,0,0.00
2013-8-13,-200.0,0.0,200.0,-99.9,-99.9,-99.9,0,0,100,30.13,30.02,6,3,0,0.00
2013-8-14,-200.0,0.0,200.0,-99.9,-99.9,-99.9,0,0,100,30.18,30.08,4,2,0,0.00
2013-8-15,-200.0,0.0,200.0,-99.9,-99.9,-99.9,0,0,100,30.11,30.05,8,4,0,0.00
2013-8-16,-200.0,0.0,200.0,-99.9,-99.9,-99.9,0,0,100,30.16,30.10,5,2,0,0.00
2013-8-17,-200.0,0.0,200.0,-99.9,-99.9,-99.9,0,0,100,30.18,30.08,5,2,0,0.00
2013-8-18,-200.0,0.0,200.0,-99.9,-99.9,-99.9,0,0,100,30.13,30.02,6,4,0,0.00
2013-8-19,-200.0,0.0,200.0,-99.9,-99.9,-99.9,0,0,100,30.05,29.93,10,5,0,0.00
2013-8-20,-200.0,0.0,200.0,-99.9,-99.9,-99.9,0,0,100,29.95,29.87,12,8,0,0.00
2013-8-21,-200.0,0.0,200.0,-99.9,-99.9,-99.9,0,0,100,29.95,29.90,11,7,0,0.00
2013-8-22,-200.0,0.0,200.0,-99.9,-99.9,-99.9,0,0,100,30.04,29.94,7,4,0,0.00
2013-8-23,-200.0,0.0,200.0,-99.9,-99.9,-99.9,0,0,100,30.08,29.99,7,5,0,0.00
2013-8-24,-200.0,0.0,200.0,-99.9,-99.9,-99.9,0,0,100,30.09,29.99,9,6,0,0.00
2013-8-25,-200.0,0.0,200.0,-99.9,-99.9,-99.9,0,0,100,30.11,30.01,11,7,0,0.00
2013-8-26,-200.0,0.0,200.0,-99.9,-99.9,-99.9,0,0,100,30.05,29.91,9,7,0,0.00
2013-8-27,-200.0,0.0,200.0,-99.9,-99.9,-99.9,0,0,100,29.92,29.84,12,9,0,0.00
2013-8-28,-200.0,0.0,200.0,-99.9,-99.9,-99.9,0,0,100,29.96,29.91,5,4,0,0.00
2013-8-29,-200.0,0.0,200.0,-99.9,-99.9,-99.9,0,0,100,30.01,29.88,7,4,0,0.00
2013-8-30,-200.0,0.0,200.0,-99.9,-99.9,-99.9,0,0,100,29.89,29.77,11,5,0,0.00
2013-8-31,-200.0,0.0,200.0,-99.9,-99.9,-99.9,0,0,100,29.84,29.75,6,3,0,0.00
2013-9-1,-200.0,0.0,200.0,-99.9,-99.9,-99.9,0,0,100,29.94,29.73,13,9,0,0.00
2013-9-2,-200.0,0.0,200.0,-99.9,-99.9,-99.9,0,0,100,30.04,29.95,10,6,0,0.00
2013-9-3,-200.0,0.0,200.0,-99.9,-99.9,-99.9,0,0,100,30.10,29.99,3,2,0,0.00
2013-9-4,-200.0,0.0,200.0,-99.9,-99.9,-99.9,0,0,100,30.12,30.02,7,3,0,0.00
2013-9-5,-200.0,0.0,200.0,-99.9,-99.9,-99.9,0,0,100,30.17,30.08,5,2,0,0.00
2013-9-6,-200.0,0.0,200.0,-99.9,-99.9,-99.9,0,0,100,30.10,29.91,10,5,0,0.00
2013-9-7,-200.0,0.0,200.0,-99.9,-99.9,-99.9,0,0,100,29.91,29.83,7,4,0,0.00
2013-9-8,-200.0,0.0,200.0,-99.9,-99.9,-99.9,0,0,100,29.93,29.81,9,5,0,0.00
2013-9-9,-200.0,0.0,200.0,-99.9,-99.9,-99.9,0,0,100,29.82,29.74,14,7,0,0.00
2013-9-10,-200.0,0.0,200.0,-99.9,-99.9,-99.9,0,0,100,29.91,29.82,12,8,0,0.00
2013-9-11,-200.0,0.0,200.0,-99.9,-99.9,-99.9,0,0,100,30.05,30.01,6,3,0,0.00
2013-9-12,-200.0,0.0,200.0,-99.9,-99.9,-99.9,0,0,100,30.16,30.03,14,8,0,0.00
2013-9-13,-200.0,0.0,200.0,-99.9,-99.9,-99.9,0,0,100,30.21,30.07,4,3,0,0.00
2013-9-14,-200.0,0.0,200.0,-99.9,-99.9,-99.9,0,0,100,30.08,29.87,10,6,0,0.00
2013-9-15,-200.0,0.0,200.0,-99.9,-99.9,-99.9,0,0,100,30.18,29.82,13,8,0,0.00
2013-9-16,-200.0,0.0,200.0,-99.9,-99.9,-99.9,0,0,100,30.31,30.20,7,4,0,0.00
2013-9-17,-200.0,0.0,200.0,-99.9,-99.9,-99.9,0,0,100,30.21,29.94,8,6,0,0.34
2013-9-18,-200.0,0.0,200.0,-99.9,-99.9,-99.9,0,0,100,29.94,29.74,7,6,0,0.06
2013-9-19,-200.0,0.0,200.0,-99.9,-99.9,-99.9,0,0,100,29.82,29.71,12,7,0,0.42
2013-9-20,-200.0,0.0,200.0,-99.9,-99.9,-99.9,0,0,100,29.95,29.85,12,8,0,0.00
2013-9-21,-200.0,0.0,200.0,-99.9,-99.9,-99.9,0,0,100,30.00,29.86,5,3,0,0.00
2013-9-22,-200.0,0.0,200.0,-99.9,-99.9,-99.9,0,0,100,29.94,29.83,10,6,0,0.00
2013-9-23,-200.0,0.0,200.0,-99.9,-99.9,-99.9,0,0,100,29.92,29.80,12,7,0,0.00
2013-9-24,-200.0,0.0,200.0,-99.9,-99.9,-99.9,0,0,100,29.88,29.82,8,5,0,0.00
2013-9-25,-200.0,0.0,200.0,-99.9,-99.9,-99.9,0,0,100,29.92,29.80,8,4,0,0.00
2013-9-26,-200.0,0.0,200.0,-99.9,-99.9,-99.9,0,0,100,29.89,29.81,13,8,0,0.00
2013-9-27,-200.0,0.0,200.0,-99.9,-99.9,-99.9,0,0,100,29.92,29.83,15,9,0,0.00
2013-9-28,-200.0,0.0,200.0,-99.9,-99.9,-99.9,0,0,100,30.00,29.74,12,8,0,0.12
2013-9-29,-200.0,0.0,200.0,-99.9,-99.9,-99.9,0,0,100,30.02,29.88,11,7,0,0.00
2013-9-30,-200.0,0.0,200.0,-99.9,-99.9,-99.9,0,0,100,29.87,29.69,13,9,0,0.00
2013-10-1,-200.0,0.0,200.0,-99.9,-99.9,-99.9,0,0,100,29.94,29.88,5,2,0,0.00
2013-10-2,-200.0,0.0,200.0,-99.9,-99.9,-99.9,0,0,100,30.00,29.82,10,6,0,0.00
2013-10-3,-200.0,0.0,200.0,-99.9,-99.9,-99.9,0,0,100,29.82,29.73,9,5,0,0.00
2013-10-4,-200.0,0.0,200.0,-99.9,-99.9,-99.9,0,0,100,29.85,29.69,11,6,0,0.34
2013-10-5,-200.0,0.0,200.0,-99.9,-99.9,-99.9,0,0,100,29.89,29.76,13,8,0,0.02
2013-10-6,-200.0,0.0,200.0,-99.9,-99.9,-99.9,0,0,100,29.86,29.71,9,6,0,0.00
2013-10-7,-200.0,0.0,200.0,-99.9,-99.9,-99.9,0,0,100,29.99,29.87,10,6,0,0.01
2013-10-8,-200.0,0.0,200.0,-99.9,-99.9,-99.9,0,0,100,30.01,29.92,15,8,0,0.00
2013-10-9,-200.0,0.0,200.0,-99.9,-99.9,-99.9,0,0,100,30.06,29.98,10,6,0,0.00
2013-10-10,-200.0,0.0,200.0,-99.9,-99.9,-99.9,0,0,100,30.02,29.87,12,6,0,0.00
2013-10-11,-200.0,0.0,200.0,-99.9,-99.9,-99.9,0,0,100,29.86,29.69,14,8,0,0.00
2013-10-12,-200.0,0.0,200.0,-99.9,-99.9,-99.9,0,0,100,30.18,29.82,13,7,0,0.00
2013-10-13,-200.0,0.0,200.0,-99.9,-99.9,-99.9,0,0,100,30.40,30.20,4,2,0,0.00
2013-10-14,-200.0,0.0,200.0,-99.9,-99.9,-99.9,0,0,100,30.30,29.81,15,9,0,0.00
2013-10-15,-200.0,0.0,200.0,-99.9,-99.9,-99.9,0,0,100,29.89,29.72,14,10,0,0.00
2013-10-16,-200.0,0.0,200.0,-99.9,-99.9,-99.9,0,0,100,29.96,29.90,10,7,0,0.01
2013-10-17,-200.0,0.0,200.0,-99.9,-99.9,-99.9,0,0,100,29.90,29.79,10,6,0,0.00
2013-10-18,-200.0,0.0,200.0,-99.9,-99.9,-99.9,0,0,100,30.01,29.92,11,7,0,0.00
2013-10-19,-200.0,0.0,200.0,-99.9,-99.9,-99.9,0,0,100,29.91,29.75,11,7,0,0.00
2013-10-20,-200.0,0.0,200.0,-99.9,-99.9,-99.9,0,0,100,29.88,29.67,13,8,0,0.00
2013-10-21,-200.0,0.0,200.0,-99.9,-99.9,-99.9,0,0,100,30.02,29.91,12,6,0,0.00
2013-10-22,-200.0,0.0,200.0,-99.9,-99.9,-99.9,0,0,100,30.03,29.84,11,6,0,0.00
2013-10-23,-200.0,0.0,200.0,-99.9,-99.9,-99.9,0,0,100,30.10,30.02,7,5,0,0.02
2013-10-24,-200.0,0.0,200.0,-99.9,-99.9,-99.9,0,0,100,30.30,30.10,12,7,0,0.00
2013-10-25,-200.0,0.0,200.0,-99.9,-99.9,-99.9,0,0,100,30.34,29.98,17,8,0,0.00
2013-10-26,-200.0,0.0,200.0,-99.9,-99.9,-99.9,0,0,100,30.11,29.90,16,10,0,0.00
2013-10-27,-200.0,0.0,200.0,-99.9,-99.9,-99.9,0,0,100,30.06,29.80,14,7,0,0.00
2013-10-28,-200.0,0.0,200.0,-99.9,-99.9,-99.9,0,0,100,30.24,29.94,12,8,0,0.00
2013-10-29,-200.0,0.0,200.0,-99.9,-99.9,-99.9,0,0,100,30.24,29.97,10,8,0,0.00
2013-10-30,-200.0,0.0,200.0,-99.9,-99.9,-99.9,0,0,100,29.96,29.64,13,7,0,0.28
2013-10-31,-200.0,0.0,200.0,-99.9,-99.9,-99.9,0,0,100,29.63,29.44,10,7,0,0.03
2013-11-1,-200.0,0.0,200.0,-99.9,-99.9,-99.9,0,0,100,29.82,29.49,13,9,0,0.01
2013-11-2,-200.0,0.0,200.0,-99.9,-99.9,-99.9,0,0,100,30.08,29.84,12,8,0,0.00
2013-11-3,-200.0,0.0,200.0,-99.9,-99.9,-99.9,0,0,100,30.08,29.86,17,11,0,0.00
2013-11-4,-200.0,0.0,200.0,-99.9,-99.9,-99.9,0,0,100,30.11,29.86,12,7,0,0.08
2013-11-5,-200.0,0.0,200.0,-99.9,-99.9,-99.9,0,0,100,30.13,29.76,13,5,0,0.09
2013-11-6,-200.0,0.0,200.0,-99.9,-99.9,-99.9,0,0,100,30.20,29.87,17,10,0,0.10
2013-11-7,-200.0,0.0,200.0,-99.9,-99.9,-99.9,0,0,100,30.26,30.18,12,7,0,0.41
2013-11-8,-200.0,0.0,200.0,-99.9,-99.9,-99.9,0,0,100,30.20,29.72,19,9,0,0.00
2013-11-9,-200.0,0.0,200.0,-99.9,-99.9,-99.9,0,0,100,30.24,29.81,16,11,0,0.00
2013-11-10,-200.0,0.0,200.0,-99.9,-99.9,-99.9,0,0,100,30.37,30.11,7,5,0,0.00
2013-11-11,-200.0,0.0,200.0,-99.9,-99.9,-99.9,0,0,100,30.63,30.03,18,12,0,0.00
2013-11-12,-200.0,0.0,200.0,-99.9,-99.9,-99.9,0,0,100,30.77,30.53,9,6,0,0.00
2013-11-13,-200.0,0.0,200.0,-99.9,-99.9,-99.9,0,0,100,30.47,29.98,18,12,0,0.00
2013-11-14,-200.0,0.0,200.0,-99.9,-99.9,-99.9,0,0,100,29.94,29.83,12,8,0,0.00
2013-11-15,-200.0,0.0,200.0,-99.9,-99.9,-99.9,0,0,100,29.86,29.68,10,6,0,0.00
2013-11-16,-200.0,0.0,200.0,-99.9,-99.9,-99.9,0,0,100,29.62,29.28,19,10,0,0.01
2013-11-17,-200.0,0.0,200.0,-99.9,-99.9,-99.9,0,0,100,29.89,29.36,15,11,0,0.02
2013-11-18,-200.0,0.0,200.0,-99.9,-99.9,-99.9,0,0,100,30.21,29.94,12,8,0,0.01
2013-11-19,-200.0,0.0,200.0,-99.9,-99.9,-99.9,0,0,100,30.20,29.95,16,11,0,0.04
2013-11-20,-200.0,0.0,200.0,-99.9,-99.9,-99.9,0,0,100,29.96,29.84,16,12,0,0.00
2013-11-21,-200.0,0.0,200.0,-99.9,-99.9,-99.9,0,0,100,30.28,29.98,15,9,0,0.00
2013-11-22,-200.0,0.0,200.0,-99.9,-99.9,-99.9,0,0,100,30.57,30.41,16,9,0,0.00
2013-11-23,-200.0,0.0,200.0,-99.9,-99.9,-99.9,0,0,100,30.76,30.55,15,10,0,0.00
2013-11-24,-200.0,0.0,200.0,-99.9,-99.9,-99.9,0,0,100,30.65,30.19,16,10,0,0.00
2013-11-25,-200.0,0.0,200.0,-99.9,-99.9,-99.9,0,0,100,30.15,30.02,16,10,0,0.00
2013-11-26,-200.0,0.0,200.0,-99.9,-99.9,-99.9,0,0,100,30.29,30.08,21,14,0,0.00
2013-11-27,-200.0,0.0,200.0,-99.9,-99.9,-99.9,0,0,100,30.33,30.01,10,6,0,0.00
2013-11-28,-200.0,0.0,200.0,-99.9,-99.9,-99.9,0,0,100,30.45,29.98,14,8,0,0.00
2013-11-29,-200.0,0.0,200.0,-99.9,-99.9,-99.9,0,0,100,30.45,30.17,12,6,0,0.00
2013-11-30,-200.0,0.0,200.0,-99.9,-99.9,-99.9,0,0,100,30.11,29.99,9,6,0,0.00
2013-12-1,-200.0,0.0,200.0,-99.9,-99.9,-99.9,0,0,100,30.11,29.90,7,4,0,0.00
2013-12-2,-200.0,0.0,200.0,-99.9,-99.9,-99.9,0,0,100,29.82,29.52,12,7,0,0.00
2013-12-3,-200.0,0.0,200.0,-99.9,-99.9,-99.9,0,0,100,29.62,29.52,8,5,0,0.00
2013-12-4,-200.0,0.0,200.0,-99.9,-99.9,-99.9,0,0,100,29.83,29.41,18,9,0,0.02
2013-12-5,-200.0,0.0,200.0,-99.9,-99.9,-99.9,0,0,100,30.33,29.91,20,14,0,0.00
2013-12-6,-200.0,0.0,200.0,-99.9,-99.9,-99.9,0,0,100,30.59,30.35,12,10,0,0.00
2013-12-7,-200.0,0.0,200.0,-99.9,-99.9,-99.9,0,0,100,30.67,30.48,8,5,0,0.00
2013-12-8,-200.0,0.0,200.0,-99.9,-99.9,-99.9,0,0,100,30.34,29.96,12,8,0,0.00
2013-12-9,-200.0,0.0,200.0,-99.9,-99.9,-99.9,0,0,100,30.20,30.02,15,10,0,0.00
2013-12-10,-200.0,0.0,200.0,-99.9,-99.9,-99.9,0,0,100,30.14,29.91,18,11,0,0.00
2013-12-11,-200.0,0.0,200.0,-99.9,-99.9,-99.9,0,0,100,30.55,30.21,18,9,0,0.00
2013-12-12,-200.0,0.0,200.0,-99.9,-99.9,-99.9,0,0,100,30.33,30.07,13,8,0,0.03
2013-12-13,-200.0,0.0,200.0,-99.9,-99.9,-99.9,0,0,100,30.02,29.90,13,7,0,0.00
2013-12-14,-200.0,0.0,200.0,-99.9,-99.9,-99.9,0,0,100,30.10,30.02,13,11,0,0.00
2013-12-15,-200.0,0.0,200.0,-99.9,-99.9,-99.9,0,0,100,30.07,29.98,9,6,0,0.00
2013-12-16,-200.0,0.0,200.0,-99.9,-99.9,-99.9,0,0,100,30.04,29.92,10,7,0,0.00
2013-12-17,-200.0,0.0,200.0,-99.9,-99.9,-99.9,0,0,100,30.14,30.01,22,12,0,0.00
2013-12-18,-200.0,0.0,200.0,-99.9,-99.9,-99.9,0,0,100,30.04,29.69,16,8,0,0.00
2013-12-19,-200.0,0.0,200.0,-99.9,-99.9,-99.9,0,0,100,29.82,29.73,12,9,0,0.00
2013-12-20,-200.0,0.0,200.0,-99.9,-99.9,-99.9,0,0,100,29.85,29.78,10,8,0,0.00
2013-12-21,-200.0,0.0,200.0,-99.9,-99.9,-99.9,0,0,100,29.84,29.73,11,7,0,0.00
2013-12-22,-200.0,0.0,200.0,-99.9,-99.9,-99.9,0,0,100,30.24,29.77,16,14,0,0.00
2013-12-23,-200.0,0.0,200.0,-99.9,-99.9,-99.9,0,0,100,30.47,30.29,13,10,0,0.00
2013-12-24,-200.0,0.0,200.0,-99.9,-99.9,-99.9,0,0,100,30.46,30.12,15,9,0,0.00
2013-12-25,-200.0,0.0,200.0,-99.9,-99.9,-99.9,0,0,100,30.18,30.07,16,10,0,0.00
2013-12-26,-200.0,0.0,200.0,-99.9,-99.9,-99.9,0,0,100,30.13,30.01,9,6,0,0.00
2013-12-27,-200.0,0.0,200.0,-99.9,-99.9,-99.9,0,0,100,30.16,29.98,14,9,0,0.00
2013-12-28,-200.0,0.0,200.0,-99.9,-99.9,-99.9,0,0,100,29.95,29.71,19,11,0,0.00
2013-12-29,-200.0,0.0,200.0,-99.9,-99.9,-99.9,0,0,100,30.24,29.96,21,16,0,0.00
2013-12-30,-200.0,0.0,200.0,-99.9,-99.9,-99.9,0,0,100,30.23,30.05,10,6,0,0.00
2013-12-31,-200.0,0.0,200.0,-99.9,-99.9,-99.9,0,0,100,30.22,30.11,12,8,0,0.00
2014-1-1,-200.0,0.0,200.0,-99.9,-99.9,-99.9,0,0,100,30.29,30.15,14,12,0,0.00
2014-1-2,-200.0,0.0,200.0,-99.9,-99.9,-99.9,0,0,100,30.39,30.26,12,9,0,0.00